Time;durP1;ratioP1;P1;durP2;ratioP2;P2;SDS_P1;SDS_P2;PMS_P1;PMS_P2;Temp;Humidity;BMP_temperature;BMP_pressure;BME280_temperature;BME280_humidity;BME280_pressure;Samples;Min_cycle;Max_cycle;Signal;HPM_P1;HPM_P2
2022/08/13 00:00:10;;;;;;;7.90;3.63;;;17.90;74.50;;;;;;5074078;28;20214;-86
2022/08/13 00:02:42;;;;;;;12.18;4.35;;;17.80;75.10;;;;;;5075245;28;20171;-87
2022/08/13 00:05:09;;;;;;;9.00;4.00;;;17.70;75.70;;;;;;5073896;28;20230;-87
2022/08/13 00:07:36;;;;;;;16.60;4.38;;;17.70;76.10;;;;;;5073937;28;20182;-86
2022/08/13 00:10:04;;;;;;;17.88;5.63;;;17.70;76.30;;;;;;5073755;28;20545;-86
2022/08/13 00:15:28;;;;;;;12.20;4.80;;;17.50;77.50;;;;;;5075026;28;20191;-86
2022/08/13 00:17:56;;;;;;;11.82;4.60;;;17.50;77.10;;;;;;5074885;28;20162;-85
2022/08/13 00:20:26;;;;;;;10.20;4.55;;;17.60;76.80;;;;;;5074857;28;20191;-86
2022/08/13 00:22:54;;;;;;;11.48;4.90;;;17.60;77.00;;;;;;5074696;28;20168;-86
2022/08/13 00:25:20;;;;;;;18.08;4.65;;;17.50;76.90;;;;;;5073546;28;20221;-85
2022/08/13 00:27:56;;;;;;;14.30;4.70;;;17.50;77.20;;;;;;5073298;28;20243;-85
2022/08/13 00:30:24;;;;;;;15.98;4.47;;;17.50;77.00;;;;;;5073332;28;20202;-86
2022/08/13 00:32:50;;;;;;;10.48;4.25;;;17.50;77.00;;;;;;5074432;28;20308;-86
2022/08/13 00:35:18;;;;;;;12.93;4.70;;;17.50;76.80;;;;;;5073356;28;20226;-85
2022/08/13 00:37:43;;;;;;;9.63;5.07;;;17.40;76.80;;;;;;5074695;28;20559;-85
2022/08/13 00:40:10;;;;;;;11.20;4.07;;;17.40;76.90;;;;;;5074306;28;20190;-86
2022/08/13 00:42:39;;;;;;;15.02;4.60;;;17.40;76.80;;;;;;5074381;28;20167;-86
2022/08/13 00:45:07;;;;;;;11.38;4.15;;;17.30;76.80;;;;;;5072867;28;20192;-87
2022/08/13 00:50:17;;;;;;;9.20;4.32;;;17.30;76.50;;;;;;5074777;28;20171;-88
2022/08/13 00:52:43;;;;;;;11.52;4.30;;;17.20;76.50;;;;;;5072870;28;20590;-87
2022/08/13 00:55:15;;;;;;;13.07;4.72;;;17.20;76.50;;;;;;5072739;28;20199;-86
2022/08/13 00:57:44;;;;;;;9.45;3.70;;;17.20;76.60;;;;;;5072801;28;20214;-86
2022/08/13 01:00:15;;;;;;;8.73;4.18;;;17.20;76.50;;;;;;5072570;28;20209;-86
2022/08/13 01:02:42;;;;;;;20.25;4.63;;;17.20;76.50;;;;;;5072754;28;20210;-86
2022/08/13 01:05:09;;;;;;;8.70;4.30;;;17.10;76.40;;;;;;5073952;28;20187;-86
2022/08/13 01:07:43;;;;;;;13.65;4.57;;;17.10;76.40;;;;;;5073861;28;20588;-86
2022/08/13 01:10:10;;;;;;;7.55;4.57;;;17.10;76.50;;;;;;5072813;28;20682;-86
2022/08/13 01:12:37;;;;;;;10.93;4.88;;;17.00;76.60;;;;;;5072683;28;20218;-87
2022/08/13 01:15:05;;;;;;;12.95;4.38;;;17.00;76.80;;;;;;5072421;28;20553;-86
2022/08/13 01:17:32;;;;;;;10.32;4.13;;;17.00;76.70;;;;;;5072398;28;20256;-86
2022/08/13 01:19:58;;;;;;;10.32;4.38;;;17.00;76.90;;;;;;5073591;28;20191;-86
2022/08/13 01:22:25;;;;;;;9.55;4.38;;;16.90;76.90;;;;;;5072737;28;20171;-86
2022/08/13 01:24:51;;;;;;;15.75;4.35;;;16.80;77.00;;;;;;5072310;28;20191;-86
2022/08/13 01:27:23;;;;;;;10.27;3.80;;;16.80;77.10;;;;;;5072272;28;20175;-86
2022/08/13 01:29:50;;;;;;;9.93;4.60;;;16.80;77.10;;;;;;5072331;28;20167;-86
2022/08/13 01:32:17;;;;;;;12.95;4.30;;;16.80;77.50;;;;;;5073524;28;20175;-86
2022/08/13 01:34:45;;;;;;;12.45;4.55;;;16.80;77.60;;;;;;5073328;28;20637;-86
2022/08/13 01:37:15;;;;;;;16.20;4.57;;;16.70;77.70;;;;;;5073435;28;20175;-87
2022/08/13 01:39:41;;;;;;;11.18;4.15;;;16.70;77.70;;;;;;5072002;28;20219;-86
2022/08/13 01:42:20;;;;;;;10.45;4.10;;;16.70;77.70;;;;;;5072156;28;20212;-87
2022/08/13 01:44:48;;;;;;;14.30;4.10;;;16.70;77.60;;;;;;5073293;28;20231;-87
2022/08/13 01:52:42;;;;;;;12.55;4.22;;;16.60;77.80;;;;;;5073546;28;20543;-86
2022/08/13 01:55:09;;;;;;;8.98;4.15;;;16.60;77.80;;;;;;5071618;28;20195;-86
2022/08/13 01:57:37;;;;;;;12.50;4.38;;;16.60;77.80;;;;;;5073142;28;20175;-87
2022/08/13 02:00:09;;;;;;;8.85;3.92;;;16.50;78.60;;;;;;5071572;28;20559;-86
2022/08/13 02:02:35;;;;;;;9.13;4.88;;;16.40;78.50;;;;;;5071806;28;20206;-88
2022/08/13 02:05:02;;;;;;;8.77;4.35;;;16.40;78.20;;;;;;5071851;28;20235;-88
2022/08/13 02:07:29;;;;;;;17.48;4.93;;;16.40;78.00;;;;;;5073311;28;20258;-87
2022/08/13 02:09:55;;;;;;;11.57;4.80;;;16.50;78.00;;;;;;5072977;28;20692;-87
2022/08/13 02:12:20;;;;;;;13.82;5.13;;;16.50;78.20;;;;;;5071735;28;20183;-87
2022/08/13 02:14:46;;;;;;;13.73;4.90;;;16.40;78.30;;;;;;5071635;28;20178;-86
2022/08/13 02:17:27;;;;;;;10.13;4.55;;;16.40;78.20;;;;;;5072937;28;20187;-87
2022/08/13 02:19:57;;;;;;;12.15;4.90;;;16.40;78.20;;;;;;5072917;28;20679;-88
2022/08/13 02:22:24;;;;;;;9.45;4.45;;;16.40;78.30;;;;;;5071598;28;20175;-87
2022/08/13 02:24:54;;;;;;;10.20;4.38;;;16.30;78.20;;;;;;5072774;28;20245;-87
2022/08/13 02:27:25;;;;;;;14.38;4.30;;;16.30;78.40;;;;;;5071622;28;20190;-88
2022/08/13 02:29:53;;;;;;;10.65;4.65;;;16.30;78.50;;;;;;5072838;28;20267;-88
2022/08/13 02:32:19;;;;;;;11.98;4.53;;;16.30;78.50;;;;;;5073318;28;20660;-87
2022/08/13 02:34:49;;;;;;;14.38;4.75;;;16.30;78.60;;;;;;5072938;28;20179;-88
2022/08/13 02:37:16;;;;;;;14.13;4.57;;;16.30;78.60;;;;;;5072792;28;20637;-87
2022/08/13 02:39:43;;;;;;;11.35;5.05;;;16.20;78.80;;;;;;5071313;28;20207;-88
2022/08/13 02:42:09;;;;;;;11.00;4.30;;;16.20;78.90;;;;;;5072768;28;20637;-87
2022/08/13 02:44:35;;;;;;;11.68;4.75;;;16.20;79.20;;;;;;5071594;28;20182;-87
2022/08/13 02:47:05;;;;;;;10.43;4.63;;;16.20;79.40;;;;;;5071637;28;20175;-87
2022/08/13 02:49:31;;;;;;;13.23;4.72;;;16.20;79.30;;;;;;5071501;28;20266;-87
2022/08/13 02:51:58;;;;;;;11.10;4.57;;;16.20;79.40;;;;;;5071492;28;20203;-86
2022/08/13 02:54:25;;;;;;;13.18;4.78;;;16.10;79.60;;;;;;5072973;28;20197;-86
2022/08/13 02:56:51;;;;;;;12.45;4.63;;;16.20;79.80;;;;;;5072715;28;20557;-87
2022/08/13 02:59:16;;;;;;;8.93;5.05;;;16.20;80.00;;;;;;5071428;28;20293;-86
2022/08/13 03:01:45;;;;;;;9.20;4.53;;;16.10;80.00;;;;;;5072705;28;20164;-87
2022/08/13 03:04:14;;;;;;;6.68;4.50;;;16.00;80.00;;;;;;5071306;28;20217;-87
2022/08/13 03:06:42;;;;;;;10.68;4.50;;;16.00;79.90;;;;;;5073197;28;20187;-87
2022/08/13 03:09:08;;;;;;;12.70;4.38;;;16.00;79.90;;;;;;5074955;28;20649;-87
2022/08/13 03:11:33;;;;;;;10.57;4.75;;;16.00;79.70;;;;;;5076173;28;20206;-86
2022/08/13 03:14:03;;;;;;;9.18;4.88;;;16.00;79.50;;;;;;5075133;28;20210;-87
2022/08/13 03:16:29;;;;;;;8.48;4.45;;;16.00;79.40;;;;;;5074946;28;20557;-86
2022/08/13 03:18:57;;;;;;;22.52;4.90;;;16.00;79.50;;;;;;5076044;28;20163;-87
2022/08/13 03:21:32;;;;;;;8.00;4.72;;;15.90;79.40;;;;;;5074860;28;20252;-86
2022/08/13 03:23:58;;;;;;;11.50;4.43;;;15.90;79.50;;;;;;5074880;28;20523;-86
2022/08/13 03:26:24;;;;;;;8.55;3.75;;;15.90;79.50;;;;;;5075866;28;20313;-87
2022/08/13 03:28:51;;;;;;;7.70;4.63;;;15.80;79.60;;;;;;5076430;28;20164;-87
2022/08/13 03:31:21;;;;;;;10.63;4.40;;;15.70;79.90;;;;;;5074634;28;20716;-87
2022/08/13 03:33:47;;;;;;;15.05;4.35;;;15.70;80.40;;;;;;5074505;28;20184;-87
2022/08/13 03:36:13;;;;;;;11.77;4.57;;;15.70;80.40;;;;;;5074494;28;20595;-86
2022/08/13 03:38:39;;;;;;;8.05;4.50;;;15.70;80.50;;;;;;5075786;28;20182;-86
2022/08/13 03:41:14;;;;;;;11.35;4.53;;;15.70;80.30;;;;;;5075547;28;20199;-87
2022/08/13 03:43:45;;;;;;;7.00;4.07;;;15.70;80.20;;;;;;5074388;28;20171;-87
2022/08/13 03:46:23;;;;;;;7.32;3.90;;;15.70;80.20;;;;;;5074363;28;20195;-87
2022/08/13 03:48:50;;;;;;;13.27;4.75;;;15.70;80.20;;;;;;5074347;28;20163;-87
2022/08/13 03:51:20;;;;;;;12.07;4.70;;;15.70;80.10;;;;;;5074158;28;20172;-86
2022/08/13 03:53:46;;;;;;;9.52;4.85;;;15.80;80.30;;;;;;5075355;28;20683;-87
2022/08/13 03:56:13;;;;;;;11.73;4.72;;;15.80;81.10;;;;;;5075240;28;20195;-87
2022/08/13 03:58:39;;;;;;;17.05;5.45;;;15.90;81.90;;;;;;5073880;28;20179;-87
2022/08/13 04:01:06;;;;;;;14.35;4.70;;;15.90;82.10;;;;;;5074084;28;20286;-86
2022/08/13 04:03:36;;;;;;;13.73;4.28;;;15.90;82.30;;;;;;5073972;28;20560;-87
2022/08/13 04:06:09;;;;;;;10.43;5.00;;;15.90;82.50;;;;;;5073915;28;20192;-87
2022/08/13 04:08:37;;;;;;;11.88;4.85;;;15.90;82.60;;;;;;5073975;28;20217;-86
2022/08/13 04:11:05;;;;;;;11.65;4.40;;;15.90;82.60;;;;;;5075053;28;20172;-86
2022/08/13 04:13:36;;;;;;;10.85;4.22;;;16.00;82.50;;;;;;5073822;28;20194;-86
2022/08/13 04:16:23;;;;;;;12.15;4.47;;;16.00;82.40;;;;;;5075003;28;20195;-87
2022/08/13 04:18:50;;;;;;;6.53;4.18;;;16.00;82.10;;;;;;5074750;28;20214;-86
2022/08/13 04:21:17;;;;;;;9.40;4.28;;;16.00;81.90;;;;;;5074879;28;20569;-87
2022/08/13 04:23:44;;;;;;;14.52;4.60;;;16.00;81.60;;;;;;5073713;28;20175;-87
2022/08/13 04:26:13;;;;;;;14.32;4.53;;;16.10;81.70;;;;;;5074711;28;20209;-87
2022/08/13 04:28:41;;;;;;;9.27;4.60;;;16.20;81.80;;;;;;5073411;28;20675;-86
2022/08/13 04:31:10;;;;;;;14.30;5.15;;;16.20;82.10;;;;;;5074635;28;20176;-86
2022/08/13 04:33:36;;;;;;;11.18;4.63;;;16.20;82.10;;;;;;5073328;28;20274;-86
2022/08/13 04:36:03;;;;;;;10.90;4.60;;;16.20;82.10;;;;;;5073277;28;20202;-87
2022/08/13 04:38:28;;;;;;;9.25;4.70;;;16.20;82.00;;;;;;5074485;28;20175;-87
2022/08/13 04:40:54;;;;;;;15.95;4.57;;;16.20;81.90;;;;;;5074675;28;20203;-87
2022/08/13 04:43:19;;;;;;;11.00;5.00;;;16.20;81.80;;;;;;5074327;28;20170;-87
2022/08/13 04:45:45;;;;;;;9.80;4.90;;;16.20;81.70;;;;;;5073106;28;20198;-88
2022/08/13 04:48:13;;;;;;;11.10;5.07;;;16.30;82.10;;;;;;5074645;28;20171;-86
2022/08/13 04:50:40;;;;;;;11.05;5.07;;;16.50;82.20;;;;;;5072992;28;20645;-86
2022/08/13 04:53:20;;;;;;;13.77;4.72;;;16.50;82.30;;;;;;5072969;28;20182;-86
2022/08/13 04:55:45;;;;;;;10.85;4.90;;;16.60;82.30;;;;;;5072817;28;20195;-88
2022/08/13 04:58:11;;;;;;;13.35;5.07;;;16.60;82.50;;;;;;5073098;28;20232;-86
2022/08/13 05:00:36;;;;;;;17.08;5.05;;;16.60;82.50;;;;;;5072585;28;20215;-86
2022/08/13 05:03:18;;;;;;;10.77;4.90;;;16.70;82.30;;;;;;5072728;28;20178;-87
2022/08/13 05:05:47;;;;;;;15.57;5.07;;;16.80;82.00;;;;;;5073926;28;20186;-86
2022/08/13 05:08:17;;;;;;;14.80;4.32;;;16.80;81.80;;;;;;5072717;28;20172;-86
2022/08/13 05:10:44;;;;;;;11.60;4.85;;;16.90;81.80;;;;;;5074096;28;20179;-87
2022/08/13 05:13:24;;;;;;;21.25;5.22;;;16.80;81.80;;;;;;5073880;28;20218;-86
2022/08/13 05:15:51;;;;;;;14.85;4.88;;;16.90;82.20;;;;;;5074170;28;20187;-86
2022/08/13 05:18:17;;;;;;;9.50;4.70;;;17.00;82.70;;;;;;5072514;28;20652;-87
2022/08/13 05:20:42;;;;;;;10.75;4.75;;;17.10;83.00;;;;;;5073547;28;20260;-86
2022/08/13 05:23:10;;;;;;;9.48;4.53;;;17.10;82.80;;;;;;5072631;28;20270;-86
2022/08/13 05:25:36;;;;;;;6.82;4.50;;;17.10;82.70;;;;;;5073644;28;20187;-86
2022/08/13 05:28:03;;;;;;;7.25;5.03;;;17.10;82.90;;;;;;5073616;28;20175;-87
2022/08/13 05:30:29;;;;;;;5.68;4.40;;;17.20;83.30;;;;;;5071902;28;20175;-86
2022/08/13 05:32:57;;;;;;;8.75;5.32;;;17.30;83.60;;;;;;5073569;28;20174;-86
2022/08/13 05:35:24;;;;;;;9.00;4.25;;;17.30;84.10;;;;;;5073443;28;20191;-87
2022/08/13 05:37:50;;;;;;;7.32;4.47;;;17.50;84.70;;;;;;5073669;28;20544;-87
2022/08/13 05:40:15;;;;;;;8.68;4.45;;;17.60;84.70;;;;;;5072176;28;20199;-87
2022/08/13 05:42:41;;;;;;;12.82;4.55;;;17.70;84.70;;;;;;5073506;28;20175;-87
2022/08/13 05:45:08;;;;;;;10.20;4.53;;;17.70;83.60;;;;;;5072094;28;20199;-86
2022/08/13 05:47:35;;;;;;;9.80;4.22;;;17.70;82.90;;;;;;5072155;28;20178;-86
2022/08/13 05:50:01;;;;;;;6.30;4.00;;;17.80;82.50;;;;;;5072130;28;20211;-86
2022/08/13 05:52:27;;;;;;;8.32;3.75;;;17.90;82.50;;;;;;5073440;28;20202;-86
2022/08/13 05:54:56;;;;;;;12.50;4.90;;;18.00;82.30;;;;;;5072206;28;20191;-86
2022/08/13 05:57:22;;;;;;;5.93;3.50;;;18.20;82.50;;;;;;5073478;28;20647;-86
2022/08/13 06:05:16;;;;;;;6.15;4.10;;;18.50;79.90;;;;;;5073322;28;20236;-86
2022/08/13 06:07:43;;;;;;;7.05;4.00;;;18.50;79.50;;;;;;5072059;28;20175;-87
2022/08/13 06:10:09;;;;;;;10.48;3.65;;;18.70;79.40;;;;;;5072074;28;20217;-85
2022/08/13 06:12:36;;;;;;;8.18;3.58;;;18.80;78.60;;;;;;5071974;28;20182;-86
2022/08/13 06:15:02;;;;;;;5.47;3.88;;;18.80;78.50;;;;;;5071895;28;20203;-86
2022/08/13 06:17:28;;;;;;;8.93;4.43;;;18.90;77.30;;;;;;5072202;28;20199;-86
2022/08/13 06:20:02;;;;;;;5.18;3.30;;;19.00;77.30;;;;;;5071795;28;20233;-86
2022/08/13 06:22:28;;;;;;;11.60;3.88;;;19.10;77.20;;;;;;5071928;28;20167;-85
2022/08/13 06:24:54;;;;;;;6.10;3.60;;;19.20;77.50;;;;;;5073323;28;20270;-86
2022/08/13 06:27:20;;;;;;;5.70;3.67;;;19.20;77.50;;;;;;5071860;28;20199;-86
2022/08/13 06:29:47;;;;;;;8.18;3.60;;;19.20;77.10;;;;;;5071778;28;20171;-86
2022/08/13 06:32:15;;;;;;;11.02;3.75;;;19.20;77.20;;;;;;5071829;28;20190;-86
2022/08/13 06:34:41;;;;;;;9.48;3.90;;;19.20;77.30;;;;;;5072921;28;20263;-86
2022/08/13 06:37:07;;;;;;;5.95;3.67;;;19.20;77.40;;;;;;5073285;28;20191;-82
2022/08/13 06:39:35;;;;;;;9.07;3.83;;;19.40;77.00;;;;;;5073294;28;20285;-82
2022/08/13 06:42:03;;;;;;;5.93;3.58;;;19.50;76.30;;;;;;5074391;28;20174;-83
2022/08/13 06:44:33;;;;;;;9.23;3.60;;;19.70;76.30;;;;;;5076099;28;20224;-83
2022/08/13 06:47:04;;;;;;;8.73;3.35;;;19.80;75.00;;;;;;5077034;28;20174;-83
2022/08/13 06:49:31;;;;;;;8.27;3.63;;;20.00;75.20;;;;;;5076651;28;20158;-84
2022/08/13 06:51:57;;;;;;;7.20;3.72;;;20.20;73.90;;;;;;5076758;28;20172;-83
2022/08/13 06:54:24;;;;;;;5.18;3.72;;;20.50;74.00;;;;;;5075445;28;20178;-81
2022/08/13 06:56:51;;;;;;;10.07;3.25;;;20.60;72.70;;;;;;5075506;28;20219;-81
2022/08/13 06:59:20;;;;;;;7.07;3.30;;;20.80;73.10;;;;;;5076392;28;20202;-81
2022/08/13 07:01:47;;;;;;;12.55;3.58;;;20.90;72.40;;;;;;5076950;28;20190;-81
2022/08/13 07:04:18;;;;;;;11.13;3.15;;;21.10;70.30;;;;;;5076945;28;20584;-82
2022/08/13 07:06:47;;;;;;;6.60;3.75;;;21.20;69.70;;;;;;5075289;28;20214;-82
2022/08/13 07:09:13;;;;;;;7.20;4.10;;;21.30;70.50;;;;;;5076749;28;20174;-81
2022/08/13 07:11:44;;;;;;;11.52;3.85;;;21.50;70.30;;;;;;5075626;28;20221;-83
2022/08/13 07:14:10;;;;;;;4.53;2.97;;;21.60;69.30;;;;;;5074977;28;20182;-83
2022/08/13 07:16:36;;;;;;;7.28;3.55;;;21.80;69.10;;;;;;5076581;28;20566;-82
2022/08/13 07:19:03;;;;;;;10.00;3.30;;;21.90;69.50;;;;;;5076274;28;20175;-82
2022/08/13 07:21:30;;;;;;;9.25;3.03;;;22.10;69.40;;;;;;5074996;28;20175;-82
2022/08/13 07:23:57;;;;;;;6.38;3.25;;;22.20;67.10;;;;;;5076794;28;20174;-82
2022/08/13 07:26:27;;;;;;;7.25;2.90;;;22.30;66.10;;;;;;5074880;28;20194;-81
2022/08/13 07:28:53;;;;;;;7.25;3.17;;;22.50;65.40;;;;;;5076530;28;20160;-82
2022/08/13 07:31:27;;;;;;;10.30;2.97;;;22.70;64.20;;;;;;5074994;28;20262;-82
2022/08/13 07:33:54;;;;;;;7.85;3.17;;;22.70;63.60;;;;;;5076350;28;20171;-81
2022/08/13 07:36:21;;;;;;;6.05;3.10;;;22.80;65.10;;;;;;5076044;28;20217;-82
2022/08/13 07:38:47;;;;;;;3.70;2.80;;;22.90;64.40;;;;;;5076544;28;20181;-81
2022/08/13 07:41:14;;;;;;;6.53;3.10;;;23.00;63.90;;;;;;5074501;28;20195;-81
2022/08/13 07:43:44;;;;;;;8.85;3.00;;;23.10;63.70;;;;;;5074569;28;20171;-81
2022/08/13 07:46:15;;;;;;;8.15;2.88;;;23.20;61.30;;;;;;5075777;28;20184;-83
2022/08/13 07:48:47;;;;;;;5.05;3.00;;;23.20;61.10;;;;;;5075165;28;20164;-81
2022/08/13 07:51:19;;;;;;;6.45;2.75;;;23.30;61.90;;;;;;5074469;28;20262;-81
2022/08/13 07:53:55;;;;;;;5.38;2.83;;;23.50;62.50;;;;;;5075658;28;20183;-81
2022/08/13 07:56:31;;;;;;;10.27;2.75;;;23.60;63.00;;;;;;5075514;28;20283;-81
2022/08/13 07:59:03;;;;;;;9.05;2.85;;;23.70;62.20;;;;;;5074503;28;20282;-81
2022/08/13 08:01:42;;;;;;;3.67;2.67;;;23.80;62.50;;;;;;5076759;28;20186;-81
2022/08/13 08:04:08;;;;;;;3.38;2.60;;;23.90;62.60;;;;;;5075984;28;20152;-81
2022/08/13 08:06:34;;;;;;;6.65;2.38;;;24.00;63.20;;;;;;5075469;28;20187;-81
2022/08/13 08:08:59;;;;;;;7.70;3.35;;;24.00;62.10;;;;;;5074058;28;20212;-81
2022/08/13 08:14:12;;;;;;;3.30;2.08;;;24.20;57.80;;;;;;5075670;28;20237;-81
2022/08/13 08:16:40;;;;;;;9.98;2.72;;;24.40;58.10;;;;;;5075219;28;20199;-81
2022/08/13 08:19:06;;;;;;;6.13;2.33;;;24.40;55.90;;;;;;5073738;28;20262;-82
2022/08/13 08:21:32;;;;;;;4.88;1.95;;;24.50;55.50;;;;;;5073861;28;20717;-82
2022/08/13 08:24:02;;;;;;;5.10;2.45;;;24.70;55.20;;;;;;5074900;28;20175;-81
2022/08/13 08:26:29;;;;;;;7.65;2.40;;;24.90;54.20;;;;;;5074076;28;20249;-81
2022/08/13 08:28:56;;;;;;;10.90;2.75;;;25.10;53.10;;;;;;5073514;28;20604;-81
2022/08/13 08:31:23;;;;;;;6.60;2.53;;;25.30;53.70;;;;;;5075875;28;20598;-81
2022/08/13 08:33:50;;;;;;;3.78;2.25;;;25.60;53.10;;;;;;5074856;28;20178;-81
2022/08/13 08:36:16;;;;;;;8.07;2.55;;;25.70;52.40;;;;;;5073457;28;20255;-81
2022/08/13 08:44:20;;;;;;;9.18;2.15;;;26.10;53.30;;;;;;5075000;28;20197;-81
2022/08/13 08:46:48;;;;;;;8.13;2.63;;;26.20;51.50;;;;;;5073279;28;20196;-81
2022/08/13 08:49:15;;;;;;;7.53;2.63;;;26.40;53.30;;;;;;5073175;28;20225;-81
2022/08/13 08:51:42;;;;;;;5.55;2.50;;;26.50;49.20;;;;;;5073152;28;20547;-81
2022/08/13 08:54:08;;;;;;;14.77;2.15;;;26.70;49.90;;;;;;5074255;28;20200;-81
2022/08/13 08:56:34;;;;;;;8.30;2.10;;;26.90;50.60;;;;;;5072865;28;20187;-81
2022/08/13 08:59:02;;;;;;;5.65;2.00;;;27.00;48.60;;;;;;5074082;28;20277;-81
2022/08/13 09:01:33;;;;;;;4.22;2.00;;;27.20;49.20;;;;;;5072713;28;20725;-81
2022/08/13 09:04:00;;;;;;;6.82;1.83;;;27.40;47.20;;;;;;5073950;28;20156;-81
2022/08/13 09:06:31;;;;;;;5.35;1.83;;;27.50;45.20;;;;;;5073607;28;20207;-82
2022/08/13 09:08:59;;;;;;;2.63;1.88;;;27.70;47.50;;;;;;5072949;28;20221;-82
2022/08/13 09:11:29;;;;;;;5.38;1.85;;;27.80;45.20;;;;;;5072529;28;20183;-81
2022/08/13 09:13:55;;;;;;;5.85;1.58;;;27.80;42.30;;;;;;5073969;28;20170;-82
2022/08/13 09:16:23;;;;;;;3.65;1.38;;;27.90;45.30;;;;;;5072567;28;20657;-82
2022/08/13 09:18:50;;;;;;;6.93;1.80;;;27.90;42.50;;;;;;5072661;28;20179;-82
2022/08/13 09:21:17;;;;;;;5.45;2.05;;;28.00;43.00;;;;;;5073610;28;20223;-83
2022/08/13 09:23:46;;;;;;;4.22;1.50;;;28.10;42.20;;;;;;5073137;28;20171;-83
2022/08/13 09:26:15;;;;;;;4.57;1.90;;;28.00;41.00;;;;;;5073673;28;20282;-83
2022/08/13 09:28:42;;;;;;;6.50;1.88;;;28.00;44.00;;;;;;5073936;28;20167;-82
2022/08/13 09:31:10;;;;;;;8.52;1.88;;;28.10;43.80;;;;;;5074675;28;20167;-82
2022/08/13 09:33:38;;;;;;;3.22;1.67;;;28.20;42.90;;;;;;5072305;28;20214;-83
2022/08/13 09:36:09;;;;;;;6.32;1.70;;;28.30;41.70;;;;;;5072123;28;20256;-83
2022/08/13 09:38:36;;;;;;;2.15;1.67;;;28.40;42.10;;;;;;5073842;28;20163;-82
2022/08/13 09:41:36;;;;;;;4.03;1.77;;;28.40;41.50;;;;;;5073540;28;20201;-82
2022/08/13 09:44:04;;;;;;;2.35;1.80;;;28.60;42.00;;;;;;5073665;28;20218;-82
2022/08/13 09:46:31;;;;;;;4.93;1.60;;;28.70;41.90;;;;;;5072400;28;20217;-81
2022/08/13 09:48:58;;;;;;;14.65;2.10;;;28.70;41.90;;;;;;5072805;28;20176;-81
2022/08/13 09:51:24;;;;;;;5.40;1.77;;;28.80;41.40;;;;;;5074086;28;20581;-80
2022/08/13 09:53:51;;;;;;;4.35;1.80;;;28.80;39.60;;;;;;5072472;28;20207;-81
2022/08/13 09:56:17;;;;;;;9.10;1.85;;;28.80;40.80;;;;;;5072503;28;20285;-79
2022/08/13 09:58:50;;;;;;;2.70;1.63;;;28.90;40.90;;;;;;5072160;28;20703;-80
2022/08/13 10:01:17;;;;;;;4.60;1.67;;;29.00;41.40;;;;;;5073843;28;20191;-80
2022/08/13 10:03:43;;;;;;;3.08;1.80;;;29.00;39.60;;;;;;5073623;28;20546;-79
2022/08/13 10:06:09;;;;;;;3.53;1.70;;;29.10;38.90;;;;;;5073689;28;20194;-80
2022/08/13 10:08:35;;;;;;;7.80;2.30;;;29.20;38.70;;;;;;5074249;28;20532;-80
2022/08/13 10:11:01;;;;;;;2.85;1.80;;;29.20;40.00;;;;;;5073692;28;20258;-80
2022/08/13 10:13:28;;;;;;;5.88;1.80;;;29.20;40.40;;;;;;5073992;28;20175;-80
2022/08/13 10:15:54;;;;;;;5.28;1.92;;;29.20;39.00;;;;;;5074439;28;20214;-80
2022/08/13 10:18:20;;;;;;;5.15;1.80;;;29.20;38.30;;;;;;5077517;28;20311;-80
2022/08/13 10:20:45;;;;;;;3.58;1.60;;;29.20;39.10;;;;;;5077811;28;20278;-80
2022/08/13 10:23:13;;;;;;;5.20;2.17;;;29.30;38.00;;;;;;5077678;28;20329;-80
2022/08/13 10:25:41;;;;;;;6.13;2.08;;;29.20;38.80;;;;;;5077630;28;20232;-80
2022/08/13 10:28:16;;;;;;;4.18;1.92;;;29.30;39.70;;;;;;5078078;28;20191;-80
2022/08/13 10:30:42;;;;;;;2.47;1.40;;;29.60;42.10;;;;;;5078029;28;20599;-80
2022/08/13 10:33:08;;;;;;;3.80;1.80;;;29.50;38.10;;;;;;5077863;28;20171;-79
2022/08/13 10:35:34;;;;;;;2.60;2.20;;;29.40;40.30;;;;;;5077205;28;20244;-80
2022/08/13 10:38:00;;;;;;;3.95;1.65;;;29.50;39.50;;;;;;5075864;28;20172;-80
2022/08/13 10:40:26;;;;;;;7.88;2.00;;;29.50;37.90;;;;;;5077354;28;20733;-80
2022/08/13 10:42:52;;;;;;;9.50;2.50;;;29.70;37.90;;;;;;5077117;28;20215;-80
2022/08/13 10:45:24;;;;;;;3.28;1.90;;;29.90;40.90;;;;;;5076798;28;20194;-80
2022/08/13 10:47:52;;;;;;;8.00;1.80;;;30.00;40.20;;;;;;5077097;28;20234;-80
2022/08/13 10:50:20;;;;;;;3.58;1.65;;;30.20;38.00;;;;;;5075823;28;20229;-79
2022/08/13 10:52:47;;;;;;;3.05;1.80;;;30.30;38.00;;;;;;5077151;28;20171;-80
2022/08/13 10:55:14;;;;;;;9.30;2.20;;;30.20;36.60;;;;;;5076764;28;20238;-79
2022/08/13 10:57:42;;;;;;;2.75;1.48;;;30.30;37.30;;;;;;5076953;28;20225;-80
2022/08/13 11:00:11;;;;;;;9.50;1.88;;;30.40;37.80;;;;;;5076836;28;20565;-80
2022/08/13 11:02:37;;;;;;;2.80;1.52;;;30.40;38.30;;;;;;5075529;28;20225;-79
2022/08/13 11:05:05;;;;;;;1.92;1.70;;;30.30;36.60;;;;;;5075516;28;20195;-80
2022/08/13 11:07:32;;;;;;;4.45;1.50;;;30.20;37.80;;;;;;5075488;28;20175;-79
2022/08/13 11:09:58;;;;;;;7.72;1.83;;;30.20;38.00;;;;;;5076904;28;20181;-79
2022/08/13 11:12:24;;;;;;;4.95;1.75;;;30.40;37.20;;;;;;5076582;28;20171;-80
2022/08/13 11:14:51;;;;;;;2.17;1.83;;;30.50;38.20;;;;;;5076627;28;20170;-79
2022/08/13 11:17:20;;;;;;;6.93;1.58;;;30.50;36.70;;;;;;5076563;28;20170;-80
2022/08/13 11:19:48;;;;;;;2.38;1.60;;;30.50;37.40;;;;;;5076459;28;20197;-80
2022/08/13 11:22:17;;;;;;;6.97;2.00;;;30.40;35.70;;;;;;5075199;28;20191;-80
2022/08/13 11:24:43;;;;;;;5.80;1.85;;;30.20;36.90;;;;;;5076127;28;20168;-80
2022/08/13 11:27:09;;;;;;;3.10;1.60;;;30.40;38.40;;;;;;5075935;28;20220;-80
2022/08/13 11:29:34;;;;;;;1.98;1.80;;;30.50;36.70;;;;;;5074881;28;20176;-80
2022/08/13 11:32:00;;;;;;;3.45;1.60;;;30.60;38.10;;;;;;5076429;28;20187;-80
2022/08/13 11:34:25;;;;;;;4.75;1.98;;;30.40;36.80;;;;;;5076266;28;20194;-80
2022/08/13 11:36:52;;;;;;;5.75;1.80;;;30.50;38.10;;;;;;5075944;28;20203;-80
2022/08/13 11:39:18;;;;;;;4.43;2.05;;;30.70;36.80;;;;;;5076180;28;20246;-79
2022/08/13 11:41:44;;;;;;;4.70;1.88;;;30.50;36.50;;;;;;5076481;28;20176;-79
2022/08/13 11:44:09;;;;;;;3.78;1.60;;;29.70;37.00;;;;;;5076284;28;20175;-80
2022/08/13 11:46:35;;;;;;;2.78;1.65;;;29.30;38.90;;;;;;5074818;28;20191;-79
2022/08/13 11:49:01;;;;;;;2.13;1.65;;;29.40;37.90;;;;;;5076534;28;20170;-80
2022/08/13 11:51:26;;;;;;;3.47;1.90;;;29.80;38.10;;;;;;5076022;28;20555;-78
2022/08/13 11:53:52;;;;;;;4.47;2.13;;;30.10;38.00;;;;;;5076351;28;20729;-80
2022/08/13 11:56:17;;;;;;;4.15;1.67;;;30.40;38.10;;;;;;5075813;28;20660;-80
2022/08/13 11:58:43;;;;;;;1.65;1.55;;;30.50;36.90;;;;;;5076024;28;20247;-80
2022/08/13 12:01:09;;;;;;;3.60;1.60;;;30.60;37.40;;;;;;5074509;28;20341;-80
2022/08/13 12:03:36;;;;;;;3.22;1.73;;;30.60;38.10;;;;;;5075741;28;20176;-80
2022/08/13 12:06:03;;;;;;;5.65;2.00;;;30.50;37.10;;;;;;5075854;28;20211;-80
2022/08/13 12:08:29;;;;;;;3.95;1.80;;;30.60;36.50;;;;;;5075489;28;20183;-80
2022/08/13 12:10:55;;;;;;;1.85;1.75;;;30.40;36.70;;;;;;5076010;28;20182;-80
2022/08/13 12:13:21;;;;;;;3.58;2.00;;;30.20;37.70;;;;;;5074969;28;20175;-80
2022/08/13 12:15:46;;;;;;;8.65;2.15;;;30.20;37.50;;;;;;5075348;28;20187;-80
2022/08/13 12:18:13;;;;;;;4.00;2.35;;;30.40;36.40;;;;;;5074273;28;20226;-80
2022/08/13 12:20:39;;;;;;;2.17;1.95;;;30.60;37.00;;;;;;5075431;28;20657;-80
2022/08/13 12:23:07;;;;;;;5.10;2.10;;;30.60;35.90;;;;;;5074253;28;20179;-80
2022/08/13 12:25:32;;;;;;;3.75;2.45;;;30.60;38.40;;;;;;5075561;28;20214;-80
2022/08/13 12:28:15;;;;;;;3.88;2.42;;;30.70;37.50;;;;;;5074252;28;20637;-78
2022/08/13 12:30:42;;;;;;;4.55;2.58;;;30.80;36.30;;;;;;5075600;28;20159;-80
2022/08/13 12:33:08;;;;;;;3.70;2.55;;;31.10;36.10;;;;;;5075519;28;20178;-80
2022/08/13 12:35:35;;;;;;;4.90;2.60;;;31.20;37.60;;;;;;5075286;28;20282;-80
2022/08/13 12:38:06;;;;;;;3.80;2.90;;;30.80;36.90;;;;;;5073927;28;20593;-78
2022/08/13 12:40:32;;;;;;;4.43;2.55;;;30.70;37.60;;;;;;5073985;28;20231;-80
2022/08/13 12:42:57;;;;;;;5.45;2.45;;;30.70;37.20;;;;;;5074737;28;20203;-80
2022/08/13 12:45:23;;;;;;;9.82;2.47;;;30.30;38.50;;;;;;5073340;28;20195;-80
2022/08/13 12:47:48;;;;;;;3.92;2.83;;;30.10;38.60;;;;;;5074710;28;20163;-80
2022/08/13 12:50:14;;;;;;;6.93;3.08;;;29.90;39.40;;;;;;5074465;28;20163;-80
2022/08/13 12:52:39;;;;;;;7.13;3.05;;;29.90;38.40;;;;;;5073812;28;20186;-80
2022/08/13 12:55:06;;;;;;;5.00;3.33;;;29.90;38.40;;;;;;5074350;28;20576;-80
2022/08/13 12:57:32;;;;;;;4.30;3.20;;;30.10;38.60;;;;;;5073143;28;20672;-79
2022/08/13 12:59:58;;;;;;;6.85;3.63;;;29.90;38.70;;;;;;5072959;28;20312;-80
2022/08/13 13:02:23;;;;;;;5.07;2.95;;;29.80;38.90;;;;;;5074267;28;20661;-80
2022/08/13 13:04:49;;;;;;;6.25;2.97;;;30.00;40.50;;;;;;5073269;28;20203;-80
2022/08/13 13:07:15;;;;;;;8.73;3.10;;;30.10;39.20;;;;;;5073510;28;20174;-79
2022/08/13 13:09:40;;;;;;;4.15;3.03;;;30.20;38.70;;;;;;5074329;28;20224;-80